createdAt,value
2022-08-09T00:01:57.580Z,19.66
2022-08-09T00:04:34.760Z,19.63
2022-08-09T00:07:10.574Z,19.56
2022-08-09T00:09:40.626Z,19.58
2022-08-09T00:12:15.455Z,19.54
2022-08-09T00:14:56.698Z,19.43
2022-08-09T00:18:05.381Z,19.35
2022-08-09T00:20:18.260Z,19.31
2022-08-09T00:22:48.228Z,19.27
2022-08-09T00:25:23.126Z,19.21
2022-08-09T00:28:04.176Z,19.15
2022-08-09T00:30:34.045Z,19.04
2022-08-09T00:33:03.995Z,19.01
2022-08-09T00:35:43.479Z,18.98
2022-08-09T00:38:14.035Z,18.96
2022-08-09T00:40:52.446Z,19.49
2022-08-09T00:44:15.498Z,19.04
2022-08-09T00:46:28.366Z,18.96
2022-08-09T00:49:04.106Z,18.94
2022-08-09T00:51:42.653Z,19.01
2022-08-09T00:54:31.638Z,19.06
2022-08-09T00:57:08.852Z,18.98
2022-08-09T00:59:47.193Z,18.98
2022-08-09T01:02:24.240Z,18.96
2022-08-09T01:05:03.249Z,19.08
2022-08-09T01:08:01.074Z,19.02
2022-08-09T01:10:35.648Z,19.00
2022-08-09T01:13:16.757Z,18.98
2022-08-09T01:15:51.796Z,19.02
2022-08-09T01:18:31.444Z,19.00
2022-08-09T01:21:17.490Z,19.11
2022-08-09T01:24:02.837Z,19.09
2022-08-09T01:27:09.669Z,19.17
2022-08-09T01:29:55.751Z,19.17
2022-08-09T01:32:34.274Z,19.22
2022-08-09T01:35:28.350Z,19.27
2022-08-09T01:38:10.795Z,19.29
2022-08-09T01:40:52.839Z,19.31
2022-08-09T01:43:50.801Z,19.36
2022-08-09T01:46:24.167Z,19.37
2022-08-09T01:49:00.248Z,19.40
2022-08-09T01:51:44.460Z,19.34
2022-08-09T01:54:25.628Z,19.28
2022-08-09T01:56:59.943Z,19.32
2022-08-09T01:59:41.093Z,19.32
2022-08-09T02:02:31.299Z,19.30
2022-08-09T02:05:05.595Z,19.31
2022-08-09T02:08:38.629Z,19.31
2022-08-09T02:10:38.756Z,19.40
2022-08-09T02:13:12.958Z,19.33
2022-08-09T02:15:50.471Z,19.44
2022-08-09T02:18:23.863Z,19.42
2022-08-09T02:20:57.144Z,19.34
2022-08-09T02:23:39.803Z,19.28
2022-08-09T02:26:24.822Z,19.32
2022-08-09T02:29:00.653Z,19.38
2022-08-09T02:31:36.137Z,19.31
2022-08-09T02:34:25.779Z,19.32
2022-08-09T02:37:07.433Z,19.36
2022-08-09T02:39:49.608Z,19.40
2022-08-09T02:42:24.795Z,19.43
2022-08-09T02:45:00.403Z,19.36
2022-08-09T02:47:46.314Z,19.30
2022-08-09T02:50:30.969Z,19.32
2022-08-09T02:53:05.945Z,19.25
2022-08-09T02:55:53.775Z,19.25
2022-08-09T02:58:38.054Z,19.48
2022-08-09T03:01:11.240Z,19.42
2022-08-09T03:04:16.652Z,19.55
2022-08-09T03:06:40.379Z,19.48
2022-08-09T03:09:11.414Z,19.51
2022-08-09T03:12:09.660Z,19.61
2022-08-09T03:14:34.413Z,19.50
2022-08-09T03:17:07.113Z,19.54
2022-08-09T03:19:57.888Z,19.62
2022-08-09T03:22:41.827Z,19.71
2022-08-09T03:28:04.276Z,19.75
2022-08-09T03:30:41.073Z,19.72
2022-08-09T03:33:18.913Z,19.72
2022-08-09T03:36:13.061Z,19.87
2022-08-09T03:38:46.128Z,19.64
2022-08-09T03:41:18.420Z,19.60
2022-08-09T03:44:03.326Z,19.58
2022-08-09T03:46:38.273Z,19.67
2022-08-09T03:49:10.263Z,19.70
2022-08-09T03:51:58.229Z,19.88
2022-08-09T03:54:34.640Z,19.94
2022-08-09T03:57:18.099Z,19.86
2022-08-09T03:59:55.479Z,19.90
2022-08-09T04:02:28.582Z,19.95
2022-08-09T04:05:05.872Z,20.07
2022-08-09T04:07:52.387Z,19.99
2022-08-09T04:10:28.701Z,19.92
2022-08-09T04:13:04.245Z,19.95
2022-08-09T04:16:17.470Z,19.99
2022-08-09T04:18:25.308Z,20.09
2022-08-09T04:20:55.070Z,19.97
2022-08-09T04:23:25.705Z,20.02
2022-08-09T04:25:56.431Z,20.02
2022-08-09T04:28:32.919Z,20.04
2022-08-09T04:31:09.733Z,20.09
2022-08-09T04:33:52.924Z,20.07
2022-08-09T04:36:27.713Z,20.04
2022-08-09T04:39:01.242Z,20.02
2022-08-09T04:41:33.077Z,19.85
2022-08-09T04:44:06.380Z,19.88
2022-08-09T04:46:57.391Z,19.75
2022-08-09T04:49:54.711Z,19.67
2022-08-09T04:52:32.483Z,19.62
2022-08-09T04:55:05.055Z,19.75
2022-08-09T04:57:54.189Z,19.83
2022-08-09T05:00:31.648Z,19.86
2022-08-09T05:03:30.205Z,20.10
2022-08-09T05:06:04.326Z,20.11
2022-08-09T05:08:37.282Z,20.14
2022-08-09T05:11:09.286Z,20.05
2022-08-09T05:13:40.921Z,20.04
2022-08-09T05:16:11.379Z,20.19
2022-08-09T05:18:58.128Z,20.36
2022-08-09T05:21:29.997Z,20.31
2022-08-09T05:24:06.855Z,20.43
2022-08-09T05:26:45.593Z,20.64
2022-08-09T05:29:21.289Z,20.46
2022-08-09T05:31:59.098Z,20.51
2022-08-09T05:34:30.712Z,20.56
2022-08-09T05:37:06.475Z,20.83
2022-08-09T05:39:43.927Z,21.14
2022-08-09T05:42:17.966Z,21.33
2022-08-09T05:44:52.678Z,21.08
2022-08-09T05:47:25.103Z,21.33
2022-08-09T05:50:30.097Z,21.35
2022-08-09T05:52:53.541Z,21.41
2022-08-09T05:55:24.451Z,21.37
2022-08-09T05:57:58.511Z,21.39
2022-08-09T06:00:32.924Z,21.33
2022-08-09T06:03:04.534Z,21.36
2022-08-09T06:05:50.230Z,21.26
2022-08-09T06:08:31.238Z,21.22
2022-08-09T06:11:01.501Z,21.09
2022-08-09T06:13:47.791Z,21.04
2022-08-09T06:16:18.095Z,20.88
2022-08-09T06:18:49.594Z,20.84
2022-08-09T06:24:23.620Z,20.67
2022-08-09T06:26:53.532Z,20.62
2022-08-09T06:29:23.542Z,20.63
2022-08-09T06:32:08.617Z,20.83
2022-08-09T06:34:39.363Z,20.53
2022-08-09T06:37:10.318Z,20.77
2022-08-09T06:39:57.701Z,20.97
2022-08-09T06:42:33.640Z,21.02
2022-08-09T06:45:20.429Z,20.95
2022-08-09T06:48:00.642Z,20.99
2022-08-09T06:50:32.173Z,20.90
2022-08-09T06:53:05.089Z,20.93
2022-08-09T06:55:36.456Z,20.85
2022-08-09T06:58:07.941Z,20.65
2022-08-09T07:00:59.558Z,20.56
2022-08-09T07:03:29.989Z,20.39
2022-08-09T07:06:05.099Z,20.39
2022-08-09T07:08:37.014Z,20.26
2022-08-09T07:11:12.766Z,20.41
2022-08-09T07:14:05.092Z,20.20
2022-08-09T07:16:42.974Z,20.27
2022-08-09T07:19:23.405Z,20.41
2022-08-09T07:21:57.133Z,20.51
2022-08-09T07:24:32.710Z,20.50
2022-08-09T07:27:33.084Z,20.67
2022-08-09T07:30:05.921Z,20.80
2022-08-09T07:32:36.896Z,21.06
2022-08-09T07:35:11.643Z,21.39
2022-08-09T07:37:43.839Z,21.71
2022-08-09T07:40:18.271Z,22.05
2022-08-09T07:42:55.726Z,22.38
2022-08-09T07:45:40.378Z,22.03
2022-08-09T07:48:22.389Z,22.04
2022-08-09T07:51:10.190Z,22.26
2022-08-09T07:54:05.309Z,22.77
2022-08-09T07:56:44.977Z,23.22
2022-08-09T07:59:25.091Z,23.66
2022-08-09T08:02:04.890Z,24.02
2022-08-09T08:04:37.324Z,24.33
2022-08-09T08:07:09.385Z,25.09
2022-08-09T08:10:07.791Z,25.22
2022-08-09T08:12:45.664Z,24.75
2022-08-09T08:15:24.155Z,24.64
2022-08-09T08:17:58.235Z,24.24
2022-08-09T08:20:32.761Z,24.38
2022-08-09T08:23:15.899Z,24.49
2022-08-09T08:25:50.417Z,24.56
2022-08-09T08:28:37.632Z,24.62
2022-08-09T08:31:15.108Z,24.80
2022-08-09T08:33:52.180Z,24.88
2022-08-09T08:36:28.918Z,25.36
2022-08-09T08:39:00.549Z,25.68
2022-08-09T08:41:50.398Z,25.83
2022-08-09T08:44:29.379Z,25.65
2022-08-09T08:47:12.373Z,25.55
2022-08-09T08:49:46.794Z,25.11
2022-08-09T08:52:58.267Z,24.78
2022-08-09T08:55:19.050Z,24.42
2022-08-09T08:57:58.299Z,24.02
2022-08-09T09:00:30.186Z,24.11
2022-08-09T09:03:11.362Z,24.13
2022-08-09T09:05:58.670Z,24.03
2022-08-09T09:08:37.870Z,24.58
2022-08-09T09:11:13.712Z,24.34
2022-08-09T09:13:57.207Z,24.83
2022-08-09T09:16:33.670Z,25.27
2022-08-09T09:22:11.688Z,27.48
2022-08-09T09:24:46.908Z,28.36
2022-08-09T09:28:04.184Z,29.47
2022-08-09T09:30:40.151Z,30.05
2022-08-09T09:33:16.116Z,29.25
2022-08-09T09:36:01.346Z,29.04
2022-08-09T09:38:48.728Z,29.69
2022-08-09T09:41:49.825Z,29.33
2022-08-09T09:44:32.011Z,28.45
2022-08-09T09:47:11.874Z,27.02
2022-08-09T09:50:07.383Z,25.95
2022-08-09T09:52:37.374Z,25.49
2022-08-09T09:55:24.221Z,25.45
2022-08-09T09:58:17.025Z,25.52
2022-08-09T10:00:55.944Z,26.79
2022-08-09T10:03:56.323Z,28.86
2022-08-09T10:06:27.725Z,29.27
2022-08-09T10:09:22.751Z,29.35
2022-08-09T10:12:14.844Z,28.54
2022-08-09T10:14:54.203Z,26.97
2022-08-09T10:17:50.288Z,26.80
2022-08-09T10:20:32.533Z,28.67
2022-08-09T10:23:20.289Z,29.86
2022-08-09T10:26:07.447Z,29.73
2022-08-09T10:28:48.781Z,29.48
2022-08-09T10:34:33.125Z,31.49
2022-08-09T10:37:09.639Z,30.97
2022-08-09T10:39:49.259Z,30.02
2022-08-09T10:42:20.918Z,29.52
2022-08-09T10:45:04.434Z,28.32
2022-08-09T10:48:16.332Z,27.85
2022-08-09T10:51:05.391Z,29.56
2022-08-09T10:53:56.456Z,29.36
2022-08-09T10:56:30.431Z,28.48
2022-08-09T10:59:30.831Z,27.75
2022-08-09T11:03:10.837Z,27.17
2022-08-09T11:05:24.919Z,26.86
2022-08-09T11:08:51.237Z,26.49
2022-08-09T11:11:52.124Z,28.47
2022-08-09T11:14:35.694Z,28.25
2022-08-09T11:18:02.978Z,27.64
2022-08-09T11:20:50.092Z,28.41
2022-08-09T11:23:30.189Z,28.33
2022-08-09T11:26:01.778Z,28.47
2022-08-09T11:28:56.518Z,28.29
2022-08-09T11:31:52.696Z,27.90
2022-08-09T11:34:35.406Z,27.95
2022-08-09T11:37:07.362Z,27.17
2022-08-09T11:40:05.863Z,27.60
2022-08-09T11:42:49.903Z,28.10
2022-08-09T11:45:42.059Z,28.55
2022-08-09T11:48:26.438Z,28.39
2022-08-09T11:51:38.107Z,27.68
2022-08-09T11:54:27.971Z,26.68
2022-08-09T11:58:00.102Z,26.29
2022-08-09T12:00:34.091Z,26.34
2022-08-09T12:03:50.310Z,26.80
2022-08-09T12:05:59.196Z,26.51
2022-08-09T12:08:31.249Z,26.16
2022-08-09T12:11:05.357Z,26.28
2022-08-09T12:14:09.977Z,27.34
2022-08-09T12:16:40.286Z,28.34
2022-08-09T12:19:12.320Z,28.02
2022-08-09T12:21:51.533Z,28.34
2022-08-09T12:24:26.139Z,27.82
2022-08-09T12:29:10.494Z,28.82
2022-08-09T12:30:29.980Z,28.88
2022-08-09T12:33:03.536Z,28.15
2022-08-09T12:35:40.822Z,27.24
2022-08-09T12:38:38.212Z,27.65
2022-08-09T12:41:13.547Z,27.92
2022-08-09T12:44:06.984Z,28.37
2022-08-09T12:46:39.041Z,29.20
2022-08-09T12:49:10.644Z,29.53
2022-08-09T12:51:59.954Z,28.83
2022-08-09T12:55:03.150Z,28.21
2022-08-09T12:57:42.559Z,27.32
2022-08-09T13:00:25.101Z,27.41
2022-08-09T13:02:58.327Z,27.56
2022-08-09T13:05:51.649Z,27.43
2022-08-09T13:08:40.171Z,26.75
2022-08-09T13:11:23.219Z,26.45
2022-08-09T13:14:41.145Z,25.88
2022-08-09T13:16:59.512Z,25.50
2022-08-09T13:20:09.772Z,25.36
2022-08-09T13:22:36.782Z,25.28
2022-08-09T13:25:15.399Z,24.99
2022-08-09T13:27:55.912Z,25.11
2022-08-09T13:30:50.763Z,24.94
2022-08-09T13:33:52.609Z,24.90
2022-08-09T13:36:39.268Z,24.91
2022-08-09T13:39:34.317Z,24.76
2022-08-09T13:42:12.116Z,25.46
2022-08-09T13:44:44.411Z,25.66
2022-08-09T13:47:31.126Z,25.44
2022-08-09T13:50:12.752Z,25.31
2022-08-09T13:52:49.752Z,25.14
2022-08-09T13:55:20.946Z,25.80
2022-08-09T13:57:55.912Z,25.10
2022-08-09T14:00:30.585Z,24.88
2022-08-09T14:03:04.146Z,24.65
2022-08-09T14:05:56.850Z,24.62
2022-08-09T14:08:34.626Z,24.89
2022-08-09T14:11:15.918Z,24.89
2022-08-09T14:14:21.933Z,24.71
2022-08-09T14:16:40.225Z,24.77
2022-08-09T14:19:13.201Z,24.53
2022-08-09T14:21:43.353Z,24.20
2022-08-09T14:24:22.118Z,24.23
2022-08-09T14:27:03.427Z,23.86
2022-08-09T14:30:35.477Z,23.96
2022-08-09T14:32:47.233Z,23.87
2022-08-09T14:35:19.822Z,23.86
2022-08-09T14:38:02.331Z,23.86
2022-08-09T14:41:00.670Z,23.73
2022-08-09T14:43:46.881Z,23.44
2022-08-09T14:46:55.588Z,23.20
2022-08-09T14:49:16.109Z,23.20
2022-08-09T14:51:46.331Z,23.12
2022-08-09T14:54:22.418Z,23.13
2022-08-09T14:56:59.409Z,23.10
2022-08-09T14:59:29.741Z,23.13
2022-08-09T15:02:01.806Z,23.13
2022-08-09T15:04:37.092Z,23.20
2022-08-09T15:07:10.231Z,23.15
2022-08-09T15:10:03.778Z,23.21
2022-08-09T15:12:34.457Z,23.20
2022-08-09T15:15:08.635Z,23.23
2022-08-09T15:17:42.200Z,23.23
2022-08-09T15:21:58.873Z,23.36
2022-08-09T15:24:02.788Z,23.26
2022-08-09T15:26:09.167Z,23.41
2022-08-09T15:28:54.747Z,23.51
2022-08-09T15:31:28.640Z,23.38
2022-08-09T15:34:32.341Z,23.44
2022-08-09T15:37:37.123Z,23.58
2022-08-09T15:40:20.082Z,23.52
2022-08-09T15:42:53.719Z,23.51
2022-08-09T15:45:29.288Z,23.32
2022-08-09T15:48:06.457Z,23.20
2022-08-09T15:50:44.110Z,22.80
2022-08-09T15:53:18.770Z,22.85
2022-08-09T15:56:29.154Z,22.69
2022-08-09T15:59:02.428Z,22.74
2022-08-09T16:01:35.497Z,22.74
2022-08-09T16:04:13.478Z,22.83
2022-08-09T16:06:50.615Z,22.82
2022-08-09T16:09:32.672Z,22.72
2022-08-09T16:12:17.224Z,22.65
2022-08-09T16:14:48.316Z,22.75
2022-08-09T16:17:19.752Z,22.71
2022-08-09T16:20:04.771Z,22.51
2022-08-09T16:22:48.861Z,22.58
2022-08-09T16:25:39.397Z,22.59
2022-08-09T16:28:13.604Z,22.55
2022-08-09T16:30:44.594Z,22.59
2022-08-09T16:33:16.276Z,22.64
2022-08-09T16:35:57.949Z,22.60
2022-08-09T16:38:32.538Z,22.58
2022-08-09T16:41:07.005Z,22.57
2022-08-09T16:43:40.354Z,22.47
2022-08-09T16:46:10.801Z,22.41
2022-08-09T16:48:59.251Z,22.38
2022-08-09T16:51:34.902Z,22.54
2022-08-09T16:54:34.578Z,22.65
2022-08-09T16:57:10.742Z,22.67
2022-08-09T16:59:44.066Z,22.52
2022-08-09T17:02:25.564Z,22.52
2022-08-09T17:04:56.258Z,22.51
2022-08-09T17:08:43.599Z,22.42
2022-08-09T17:10:20.891Z,22.45
2022-08-09T17:12:53.122Z,22.45
2022-08-09T17:15:30.965Z,22.42
2022-08-09T17:18:16.752Z,22.39
2022-08-09T17:20:57.347Z,22.27
2022-08-09T17:24:20.774Z,22.21
2022-08-09T17:26:31.621Z,22.16
2022-08-09T17:29:20.418Z,22.18
2022-08-09T17:31:52.018Z,22.67
2022-08-09T17:35:00.757Z,22.19
2022-08-09T17:37:19.944Z,22.07
2022-08-09T17:39:55.331Z,21.97
2022-08-09T17:42:42.129Z,21.77
2022-08-09T17:45:27.097Z,21.77
2022-08-09T17:48:02.752Z,21.64
2022-08-09T17:50:37.059Z,21.61
2022-08-09T17:53:19.426Z,21.57
2022-08-09T17:55:57.617Z,21.49
2022-08-09T17:58:30.618Z,21.31
2022-08-09T18:01:04.400Z,21.28
2022-08-09T18:03:34.277Z,21.10
2022-08-09T18:06:04.396Z,20.97
2022-08-09T18:08:44.773Z,20.95
2022-08-09T18:11:16.329Z,20.89
2022-08-09T18:13:57.263Z,20.84
2022-08-09T18:16:48.905Z,20.77
2022-08-09T18:20:54.132Z,20.64
2022-08-09T18:22:17.303Z,20.61
2022-08-09T18:24:50.732Z,20.61
2022-08-09T18:28:02.898Z,20.60
2022-08-09T18:30:40.709Z,20.65
2022-08-09T18:33:12.745Z,20.69
2022-08-09T18:35:59.104Z,20.61
2022-08-09T18:38:32.175Z,20.58
2022-08-09T18:41:03.310Z,20.54
2022-08-09T18:43:35.206Z,20.57
2022-08-09T18:46:50.301Z,20.51
2022-08-09T18:49:02.078Z,20.51
2022-08-09T18:51:38.359Z,20.40
2022-08-09T18:54:17.694Z,20.43
2022-08-09T18:56:55.070Z,20.41
2022-08-09T18:59:27.292Z,20.34
2022-08-09T19:02:09.079Z,20.38
2022-08-09T19:04:48.035Z,20.33
2022-08-09T19:07:34.915Z,20.21
2022-08-09T19:10:17.282Z,20.17
2022-08-09T19:12:56.788Z,20.19
2022-08-09T19:15:49.159Z,20.23
2022-08-09T19:18:35.227Z,20.14
2022-08-09T19:21:10.793Z,20.14
2022-08-09T19:24:37.239Z,20.13
2022-08-09T19:26:35.152Z,20.12
2022-08-09T19:29:17.941Z,20.09
2022-08-09T19:31:51.040Z,20.00
2022-08-09T19:34:26.275Z,20.02
2022-08-09T19:36:59.397Z,20.04
2022-08-09T19:40:02.404Z,19.94
2022-08-09T19:42:28.239Z,19.97
2022-08-09T19:44:58.782Z,20.12
2022-08-09T19:47:29.585Z,20.02
2022-08-09T19:50:07.862Z,20.07
2022-08-09T19:52:53.109Z,20.15
2022-08-09T19:55:25.682Z,20.08
2022-08-09T19:58:01.470Z,20.05
2022-08-09T20:00:31.946Z,20.03
2022-08-09T20:04:16.971Z,19.95
2022-08-09T20:05:55.564Z,20.15
2022-08-09T20:08:34.943Z,20.19
2022-08-09T20:11:07.424Z,20.18
2022-08-09T20:13:38.434Z,20.77
2022-08-09T20:16:37.251Z,20.27
2022-08-09T20:19:42.580Z,20.21
2022-08-09T20:21:56.503Z,20.13
2022-08-09T20:24:34.085Z,20.12
2022-08-09T20:27:08.160Z,20.14
2022-08-09T20:29:40.604Z,20.12
2022-08-09T20:32:30.727Z,20.06
2022-08-09T20:35:05.688Z,20.04
2022-08-09T20:38:22.043Z,19.98
2022-08-09T20:40:31.129Z,20.02
2022-08-09T20:43:18.166Z,19.96
2022-08-09T20:45:59.542Z,19.98
2022-08-09T20:48:32.308Z,19.98
2022-08-09T20:51:03.163Z,20.02
2022-08-09T20:53:36.888Z,20.04
2022-08-09T20:56:20.163Z,20.10
2022-08-09T20:58:54.676Z,20.12
2022-08-09T21:01:34.462Z,20.10
2022-08-09T21:05:55.151Z,20.18
2022-08-09T21:07:12.149Z,20.21
2022-08-09T21:09:55.676Z,20.16
2022-08-09T21:15:23.689Z,20.13
2022-08-09T21:18:11.664Z,20.03
2022-08-09T21:20:54.865Z,20.04
2022-08-09T21:23:36.055Z,19.95
2022-08-09T21:26:17.352Z,19.90
2022-08-09T21:28:55.994Z,19.90
2022-08-09T21:31:48.842Z,20.12
2022-08-09T21:34:29.362Z,19.82
2022-08-09T21:37:02.731Z,19.75
2022-08-09T21:39:42.367Z,19.91
2022-08-09T21:42:16.572Z,19.91
2022-08-09T21:44:47.404Z,19.95
2022-08-09T21:47:22.126Z,19.81
2022-08-09T21:49:56.306Z,19.82
2022-08-09T21:52:32.676Z,19.66
2022-08-09T21:55:04.893Z,19.63
2022-08-09T21:57:38.551Z,19.53
2022-08-09T22:00:32.476Z,19.49
2022-08-09T22:03:06.396Z,19.40
2022-08-09T22:05:42.293Z,19.30
2022-08-09T22:08:14.609Z,19.28
2022-08-09T22:11:48.917Z,19.28
2022-08-09T22:13:37.484Z,19.24
2022-08-09T22:16:09.688Z,19.24
2022-08-09T22:18:44.136Z,19.22
2022-08-09T22:21:44.757Z,19.26
2022-08-09T22:24:24.193Z,19.28
2022-08-09T22:26:55.045Z,19.27
2022-08-09T22:29:28.761Z,19.23
2022-08-09T22:32:12.677Z,19.26
2022-08-09T22:35:06.414Z,19.25
2022-08-09T22:38:06.956Z,19.22
2022-08-09T22:40:38.694Z,19.15
2022-08-09T22:44:00.487Z,19.09
2022-08-09T22:48:11.473Z,19.17
2022-08-09T22:49:05.537Z,19.30
2022-08-09T22:51:49.250Z,19.27
2022-08-09T22:54:23.661Z,19.22
2022-08-09T22:56:58.621Z,19.22
2022-08-09T22:59:56.093Z,19.17
2022-08-09T23:02:20.446Z,19.19
2022-08-09T23:04:53.607Z,19.23
2022-08-09T23:08:27.382Z,19.14
2022-08-09T23:10:34.306Z,19.20
2022-08-09T23:13:04.023Z,19.10
2022-08-09T23:15:34.752Z,18.99
2022-08-09T23:18:04.466Z,18.96
2022-08-09T23:20:39.762Z,18.97
2022-08-09T23:23:09.149Z,18.94
2022-08-09T23:25:39.415Z,18.98
2022-08-09T23:28:14.630Z,18.95
2022-08-09T23:30:51.383Z,19.12
2022-08-09T23:33:22.329Z,19.22
2022-08-09T23:36:04.623Z,19.23
2022-08-09T23:38:49.211Z,19.26
2022-08-09T23:41:27.464Z,19.29
2022-08-09T23:44:00.201Z,19.35
2022-08-09T23:46:30.396Z,19.34
2022-08-09T23:49:01.054Z,19.33
2022-08-09T23:51:32.214Z,19.36
2022-08-09T23:54:03.660Z,19.26
2022-08-09T23:56:52.118Z,19.26
2022-08-09T23:59:25.886Z,19.83
